Time;durP1;ratioP1;P1;durP2;ratioP2;P2;SDS_P1;SDS_P2;PMS_P1;PMS_P2;Temp;Humidity;BMP_temperature;BMP_pressure;BME280_temperature;BME280_humidity;BME280_pressure;Samples;Min_cycle;Max_cycle;Signal;HPM_P1;HPM_P2
2022/09/14 16:19:40;;;;;;;;;;;17.00;99.10;;;;;;5071039;28;19912;-91
2022/09/14 16:22:06;;;;;;;;;;;16.90;99.90;;;;;;5071169;28;19912;-92
2022/09/14 16:24:31;;;;;;;;;;;17.00;99.90;;;;;;5068539;28;19912;-93
2022/09/14 16:26:57;;;;;;;;;;;17.10;99.90;;;;;;5070746;28;20007;-91
2022/09/14 16:29:23;;;;;;;;;;;17.20;99.90;;;;;;5070361;28;19999;-92
2022/09/14 16:31:49;;;;;;;;;;;17.30;99.90;;;;;;5078383;28;20377;-90
2022/09/14 16:34:26;;;;;;;;;;;17.40;99.90;;;;;;5063120;28;19920;-90
2022/09/14 16:36:52;;;;;;;;;;;17.40;99.90;;;;;;5068580;28;19912;-90
2022/09/14 16:39:19;;;;;;;;;;;17.50;99.90;;;;;;5071361;28;20345;-93
2022/09/14 16:41:45;;;;;;;;;;;17.50;99.90;;;;;;5068349;28;20007;-94
2022/09/14 16:44:15;;;;;;;;;;;17.60;99.90;;;;;;5069908;28;20372;-94
2022/09/14 16:46:40;;;;;;;;;;;17.60;99.90;;;;;;5070394;28;19913;-94
2022/09/14 16:49:06;;;;;;;;;;;17.60;99.90;;;;;;5070261;28;19936;-94
2022/09/14 16:51:32;;;;;;;;;;;17.50;99.90;;;;;;5070231;28;19947;-95
2022/09/14 16:53:58;;;;;;;;;;;17.40;99.90;;;;;;5068234;28;19990;-94
2022/09/14 16:56:25;;;;;;;;;;;17.40;99.90;;;;;;5071055;28;20272;-95
2022/09/14 16:58:52;;;;;;;;;;;17.30;99.90;;;;;;5068638;28;19920;-94
2022/09/14 17:01:17;;;;;;;;;;;17.20;99.90;;;;;;5069504;28;19908;-93
2022/09/14 17:03:43;;;;;;;;;;;17.20;99.90;;;;;;5069426;28;19909;-93
2022/09/14 17:06:11;;;;;;;;;;;17.10;99.90;;;;;;5070318;28;19909;-93
2022/09/14 17:08:36;;;;;;;;;;;17.10;99.90;;;;;;5069612;28;20364;-95
2022/09/14 17:11:03;;;;;;;;;;;17.00;99.90;;;;;;5068951;28;19908;-94
2022/09/14 17:21:38;;;;;;;;;;;16.80;99.90;;;;;;5133311;27;19919;-93
2022/09/14 17:24:04;;;;;;;;;;;16.70;99.90;;;;;;5131334;27;19912;-93
2022/09/14 17:26:29;;;;;;;;;;;16.60;99.90;;;;;;5131390;28;19908;-92
2022/09/14 17:28:56;;;;;;;;;;;16.50;99.90;;;;;;5129659;27;19907;-92
2022/09/14 17:31:26;;;;;;;;;;;16.50;99.90;;;;;;5143860;27;19907;-92
2022/09/14 17:33:53;;;;;;;;;;;16.50;99.90;;;;;;5131113;27;19918;-92
2022/09/14 17:36:18;;;;;;;;;;;16.50;99.90;;;;;;5142429;27;19915;-91
2022/09/14 17:38:44;;;;;;;;;;;16.50;99.90;;;;;;5153332;27;20347;-93
2022/09/14 17:41:20;;;;;;;;;;;16.50;99.90;;;;;;5151707;27;19911;-92
2022/09/14 17:43:49;;;;;;;;;;;16.50;99.90;;;;;;5133233;27;19958;-91
2022/09/14 17:46:16;;;;;;;;;;;16.40;99.90;;;;;;5118740;28;19911;-93
2022/09/14 20:09:34;;;;;;;;;;;13.10;99.90;;;;;;5112793;27;20348;-92
2022/09/14 20:11:59;;;;;;;;;;;13.00;99.90;;;;;;5141218;27;20000;-91
2022/09/14 20:14:25;;;;;;;;;;;13.00;99.90;;;;;;5096394;28;19916;-91
2022/09/14 20:16:55;;;;;;;;;;;13.10;99.90;;;;;;5090250;28;19908;-91
2022/09/14 20:19:22;;;;;;;;;;;13.10;99.90;;;;;;5090303;28;19909;-91
2022/09/14 20:21:48;;;;;;;;;;;13.20;99.90;;;;;;5090274;28;19908;-91
2022/09/14 20:24:16;;;;;;;;;;;13.20;99.90;;;;;;5090429;28;19908;-92
2022/09/14 20:26:43;;;;;;;;;;;13.30;99.90;;;;;;5091714;28;20277;-91
2022/09/14 20:29:08;;;;;;;;;;;13.30;99.90;;;;;;5110648;28;20006;-91
2022/09/14 20:31:34;;;;;;;;;;;13.40;99.90;;;;;;5110650;28;20452;-92
2022/09/14 20:34:00;;;;;;;;;;;13.50;99.90;;;;;;5100319;28;20067;-92
2022/09/14 20:36:27;;;;;;;;;;;13.50;99.90;;;;;;5124256;28;19908;-94
2022/09/14 20:38:54;;;;;;;;;;;13.60;99.90;;;;;;5090215;28;19916;-94
2022/09/14 20:41:20;;;;;;;;;;;13.60;99.90;;;;;;5089978;28;19931;-93
2022/09/14 20:43:47;;;;;;;;;;;13.70;99.90;;;;;;5100422;28;19912;-94
2022/09/14 20:46:37;;;;;;;;;;;13.70;99.90;;;;;;5125833;27;19912;-95
2022/09/14 20:49:03;;;;;;;;;;;13.70;99.90;;;;;;5089771;28;20352;-91
2022/09/14 20:51:29;;;;;;;;;;;13.70;99.90;;;;;;5100814;28;19995;-93
2022/09/14 20:53:57;;;;;;;;;;;13.70;99.90;;;;;;5106472;28;19978;-94
2022/09/14 20:56:23;;;;;;;;;;;13.70;99.90;;;;;;5109998;28;19955;-94
